| time (UTC) | temp C | wind direction | speed KPH | gust KPH | rain 1hr cm | rain 24hr cm | rain mn cm | humidity % | barometer mb |
| 20260505140336 | 11 | 175 | 22.5 | 37.0 | 0.00 | 0.00 | 0.00 | 83 | 1010.1 |
| 20260505124336 | 10 | 186 | 12.9 | 25.7 | 0.00 | 0.00 | 0.00 | 84 | 1009.9 |
| 20260505123837 | 10 | 178 | 14.5 | 27.4 | 0.00 | 0.00 | 0.00 | 84 | 1010.0 |
| 20260505123337 | 10 | 192 | 14.5 | 27.4 | 0.00 | 0.00 | 0.00 | 84 | 1010.0 |
| 20260505122838 | 10 | 182 | 14.5 | 25.7 | 0.00 | 0.00 | 0.00 | 84 | 1010.0 |
| 20260505122334 | 10 | 199 | 16.1 | 29.0 | 0.00 | 0.00 | 0.00 | 84 | 1010.0 |
| 20260505121833 | 10 | 202 | 16.1 | 29.0 | 0.00 | 0.00 | 0.00 | 84 | 1010.0 |
| 20260505121334 | 10 | 218 | 16.1 | 30.6 | 0.00 | 0.00 | 0.00 | 85 | 1010.0 |
| 20260505120842 | 9 | 190 | 14.5 | 24.1 | 0.00 | 0.00 | 0.00 | 86 | 1009.8 |
| 20260505120837 | 10 | 209 | 16.1 | 30.6 | 0.00 | 0.00 | 0.00 | 85 | 1009.9 |
| 20260505115832 | 9 | 221 | 12.9 | 24.1 | 0.00 | 0.00 | 0.00 | 85 | 1009.8 |
| 20260505115332 | 9 | 204 | 11.3 | 22.5 | 0.00 | 0.00 | 0.00 | 86 | 1009.9 |
| 20260505114822 | 9 | 211 | 9.7 | 19.3 | 0.00 | 0.00 | 0.00 | 86 | 1010.0 |
| 20260505114322 | 9 | 213 | 9.7 | 17.7 | 0.00 | 0.00 | 0.00 | 86 | 1010.0 |
| 20260505113822 | 9 | 213 | 8.0 | 17.7 | 0.00 | 0.00 | 0.00 | 87 | 1009.9 |
| 20260505113323 | 8 | 170 | 6.4 | 14.5 | 0.00 | 0.00 | 0.00 | 87 | 1009.9 |
| 20260505113053 | 8 | 178 | 6.4 | 12.9 | 0.00 | 0.00 | 0.00 | 87 | 1009.9 |
| 20260505112323 | 8 | 196 | 6.4 | 12.9 | 0.00 | 0.00 | 0.00 | 88 | 1009.9 |
| 20260505111828 | 8 | 161 | 6.4 | 14.5 | 0.00 | 0.00 | 0.00 | 87 | 1009.9 |
| 20260505111821 | 8 | 194 | 6.4 | 12.9 | 0.00 | 0.00 | 0.00 | 87 | 1010.0 |
| 20260505111052 | 8 | 173 | 4.8 | 14.5 | 0.00 | 0.00 | 0.00 | 86 | 1009.9 |
| 20260505110321 | 8 | 167 | 4.8 | 14.5 | 0.00 | 0.00 | 0.00 | 86 | 1009.9 |
| 20260505101819 | 7 | 209 | 1.6 | 4.8 | 0.00 | 0.00 | 0.00 | 90 | 1009.8 |
| 20260505101321 | 7 | 213 | 1.6 | 6.4 | 0.00 | 0.00 | 0.00 | 89 | 1009.7 |
| 20260505100819 | 6 | 215 | 1.6 | 6.4 | 0.00 | 0.00 | 0.00 | 89 | 1009.7 |
| 20260505100321 | 6 | 214 | 1.6 | 6.4 | 0.00 | 0.00 | 0.00 | 90 | 1009.6 |
| 20260505095819 | 6 | 214 | 0.0 | 6.4 | 0.00 | 0.00 | 0.00 | 90 | 1009.6 |
| 20260505095320 | 6 | 214 | 0.0 | 0.0 | 0.00 | 0.00 | 0.00 | 89 | 1009.6 |
| 20260505095053 | 6 | 214 | 0.0 | 0.0 | 0.00 | 0.00 | 0.00 | 89 | 1009.5 |
| 20260505094321 | 6 | 214 | 0.0 | 0.0 | 0.00 | 0.00 | 0.00 | 88 | 1009.5 |
| 20260505093820 | 6 | 214 | 0.0 | 0.0 | 0.00 | 0.00 | 0.00 | 88 | 1009.5 |
| 20260505093321 | 6 | 214 | 0.0 | 0.0 | 0.00 | 0.00 | 0.00 | 88 | 1009.4 |
| 20260505092820 | 6 | 214 | 0.0 | 0.0 | 0.00 | 0.00 | 0.00 | 87 | 1009.4 |
| 20260505092320 | 6 | 214 | 0.0 | 1.6 | 0.00 | 0.00 | 0.00 | 87 | 1009.3 |
| 20260505091818 | 7 | 214 | 0.0 | 1.6 | 0.00 | 0.00 | 0.00 | 87 | 1009.3 |
| 20260505091318 | 7 | 214 | 0.0 | 3.2 | 0.00 | 0.00 | 0.00 | 87 | 1009.4 |
| 20260505090817 | 7 | 214 | 0.0 | 3.2 | 0.00 | 0.00 | 0.00 | 86 | 1009.5 |
| 20260505090319 | 7 | 214 | 0.0 | 3.2 | 0.00 | 0.00 | 0.00 | 86 | 1009.5 |
| 20260505085824 | 7 | 214 | 3.2 | 16.1 | 0.00 | 0.00 | 0.00 | 86 | 1009.4 |
| 20260505085817 | 7 | 214 | 1.6 | 16.1 | 0.00 | 0.00 | 0.00 | 86 | 1009.4 |
| 20260505084819 | 7 | 214 | 6.4 | 20.9 | 0.00 | 0.00 | 0.00 | 86 | 1009.3 |
| 20260505084315 | 7 | 248 | 8.0 | 20.9 | 0.00 | 0.00 | 0.00 | 86 | 1009.1 |
| 20260505083815 | 7 | 257 | 8.0 | 20.9 | 0.00 | 0.00 | 0.00 | 86 | 1009.1 |
| 20260505083316 | 7 | 281 | 9.7 | 20.9 | 0.00 | 0.00 | 0.00 | 86 | 1009.2 |
| 20260505082816 | 8 | 255 | 9.7 | 20.9 | 0.00 | 0.00 | 0.00 | 86 | 1009.1 |
| 20260505082315 | 7 | 267 | 9.7 | 20.9 | 0.00 | 0.00 | 0.00 | 86 | 1009.0 |
| 20260505081817 | 7 | 273 | 9.7 | 20.9 | 0.00 | 0.00 | 0.00 | 86 | 1009.0 |
| 20260505081313 | 7 | 236 | 9.7 | 20.9 | 0.00 | 0.00 | 0.00 | 86 | 1009.1 |
| 20260505080813 | 7 | 252 | 9.7 | 20.9 | 0.00 | 0.00 | 0.00 | 86 | 1009.0 |
| 20260505080311 | 7 | 232 | 9.7 | 20.9 | 0.00 | 0.00 | 0.00 | 86 | 1009.0 |
| 20260505080044 | 7 | 250 | 8.0 | 19.3 | 0.00 | 0.00 | 0.00 | 86 | 1009.0 |
| 20260505075310 | 7 | 247 | 8.0 | 19.3 | 0.00 | 0.00 | 0.00 | 86 | 1009.0 |
| 20260505075042 | 8 | 241 | 9.7 | 19.3 | 0.00 | 0.00 | 0.00 | 86 | 1009.1 |
| 20260505074310 | 8 | 248 | 9.7 | 19.3 | 0.00 | 0.00 | 0.00 | 85 | 1009.1 |
| 20260505074040 | 8 | 251 | 11.3 | 19.3 | 0.00 | 0.00 | 0.00 | 85 | 1009.1 |
| 20260505073309 | 8 | 260 | 11.3 | 19.3 | 0.00 | 0.00 | 0.00 | 85 | 1009.1 |
| 20260505072810 | 8 | 246 | 11.3 | 19.3 | 0.00 | 0.00 | 0.00 | 86 | 1009.1 |
| 20260505072305 | 8 | 257 | 11.3 | 19.3 | 0.00 | 0.00 | 0.00 | 86 | 1009.1 |
| 20260505071806 | 8 | 254 | 11.3 | 19.3 | 0.00 | 0.00 | 0.00 | 85 | 1009.0 |
| 20260505071305 | 8 | 250 | 9.7 | 19.3 | 0.00 | 0.00 | 0.00 | 85 | 1009.1 |
| 20260505070807 | 8 | 219 | 9.7 | 19.3 | 0.00 | 0.00 | 0.00 | 85 | 1009.0 |
| 20260505070303 | 7 | 244 | 9.7 | 19.3 | 0.00 | 0.00 | 0.00 | 85 | 1009.0 |
| 20260505065803 | 7 | 222 | 9.7 | 17.7 | 0.00 | 0.00 | 0.00 | 85 | 1009.1 |
| 20260505065304 | 7 | 244 | 9.7 | 16.1 | 0.00 | 0.00 | 0.00 | 85 | 1008.9 |
| 20260505064803 | 8 | 258 | 8.0 | 16.1 | 0.00 | 0.00 | 0.00 | 85 | 1009.0 |
| 20260505064536 | 8 | 246 | 8.0 | 19.3 | 0.00 | 0.00 | 0.00 | 84 | 1009.0 |
| 20260505063803 | 8 | 251 | 9.7 | 19.3 | 0.00 | 0.00 | 0.00 | 84 | 1009.1 |
| 20260505063304 | 8 | 231 | 9.7 | 19.3 | 0.00 | 0.00 | 0.00 | 84 | 1009.0 |
| 20260505062804 | 8 | 248 | 11.3 | 19.3 | 0.00 | 0.00 | 0.00 | 84 | 1009.1 |
| 20260505062536 | 8 | 244 | 9.7 | 16.1 | 0.00 | 0.00 | 0.00 | 84 | 1008.8 |
| 20260505061801 | 8 | 270 | 6.4 | 19.3 | 0.00 | 0.00 | 0.00 | 84 | 1008.9 |
| 20260505061303 | 8 | 211 | 6.4 | 19.3 | 0.00 | 0.00 | 0.00 | 83 | 1008.8 |
| 20260505060802 | 8 | 242 | 8.0 | 19.3 | 0.00 | 0.00 | 0.00 | 83 | 1008.8 |
| 20260505060301 | 8 | 269 | 8.0 | 19.3 | 0.00 | 0.00 | 0.00 | 83 | 1008.7 |
| 20260505055803 | 8 | 250 | 8.0 | 17.7 | 0.00 | 0.00 | 0.00 | 83 | 1008.8 |
| 20260505055301 | 8 | 243 | 8.0 | 16.1 | 0.00 | 0.00 | 0.00 | 83 | 1008.7 |
| 20260505055033 | 8 | 267 | 8.0 | 16.1 | 0.00 | 0.00 | 0.00 | 83 | 1008.7 |
| 20260505054300 | 8 | 252 | 8.0 | 16.1 | 0.00 | 0.00 | 0.00 | 83 | 1008.7 |
| 20260505053801 | 8 | 257 | 9.7 | 16.1 | 0.00 | 0.00 | 0.00 | 83 | 1008.6 |
| 20260505053309 | 8 | 267 | 8.0 | 16.1 | 0.00 | 0.00 | 0.00 | 83 | 1008.6 |
| 20260505053304 | 8 | 248 | 8.0 | 16.1 | 0.00 | 0.00 | 0.00 | 83 | 1008.6 |
| 20260505052300 | 8 | 263 | 6.4 | 16.1 | 0.00 | 0.00 | 0.00 | 83 | 1008.6 |
| 20260505051759 | 8 | 245 | 4.8 | 14.5 | 0.00 | 0.00 | 0.00 | 83 | 1008.6 |
| 20260505051301 | 8 | 247 | 3.2 | 11.3 | 0.00 | 0.00 | 0.00 | 83 | 1008.5 |
| 20260505050800 | 8 | 268 | 4.8 | 9.7 | 0.00 | 0.00 | 0.00 | 83 | 1008.4 |
| 20260505050300 | 8 | 227 | 4.8 | 9.7 | 0.00 | 0.00 | 0.00 | 82 | 1008.4 |
| 20260505041258 | 8 | 202 | 6.4 | 14.5 | 0.00 | 0.00 | 0.00 | 82 | 1008.5 |
| 20260505040757 | 8 | 229 | 6.4 | 16.1 | 0.00 | 0.00 | 0.00 | 82 | 1008.6 |
| 20260505040302 | 8 | 218 | 6.4 | 16.1 | 0.00 | 0.00 | 0.00 | 82 | 1008.5 |
| 20260505040256 | 8 | 248 | 8.0 | 17.7 | 0.00 | 0.00 | 0.00 | 82 | 1008.6 |
| 20260505035528 | 8 | 196 | 8.0 | 17.7 | 0.00 | 0.00 | 0.00 | 82 | 1008.6 |
| 20260505035024 | 8 | 246 | 8.0 | 17.7 | 0.00 | 0.00 | 0.00 | 83 | 1008.4 |
| 20260505034255 | 8 | 236 | 6.4 | 16.1 | 0.00 | 0.00 | 0.00 | 83 | 1008.5 |
| 20260505033753 | 8 | 293 | 6.4 | 16.1 | 0.00 | 0.00 | 0.00 | 84 | 1008.4 |
| 20260505033254 | 8 | 285 | 6.4 | 12.9 | 0.00 | 0.00 | 0.00 | 84 | 1008.3 |
| 20260505033026 | 8 | 204 | 4.8 | 12.9 | 0.00 | 0.00 | 0.00 | 85 | 1008.3 |
| 20260505032253 | 7 | 245 | 3.2 | 12.9 | 0.00 | 0.00 | 0.00 | 87 | 1008.3 |
| 20260505031754 | 7 | 261 | 1.6 | 12.9 | 0.00 | 0.00 | 0.00 | 88 | 1008.3 |
| 20260505031254 | 6 | 214 | 1.6 | 11.3 | 0.00 | 0.00 | 0.00 | 89 | 1008.4 |
| 20260505030752 | 6 | 250 | 0.0 | 11.3 | 0.00 | 0.00 | 0.00 | 88 | 1008.4 |
| 20260505030258 | 6 | 230 | 0.0 | 0.0 | 0.00 | 0.00 | 0.00 | 88 | 1008.4 |
| 20260505030252 | 6 | 229 | 0.0 | 0.0 | 0.00 | 0.00 | 0.00 | 88 | 1008.3 |
| 20260505025251 | 6 | 230 | 0.0 | 0.0 | 0.00 | 0.00 | 0.00 | 87 | 1008.3 |
| 20260505024750 | 6 | 230 | 0.0 | 0.0 | 0.00 | 0.00 | 0.00 | 87 | 1008.3 |
| 20260505024251 | 6 | 230 | 0.0 | 0.0 | 0.00 | 0.00 | 0.00 | 87 | 1008.4 |
| 20260505024021 | 6 | 229 | 0.0 | 0.0 | 0.00 | 0.00 | 0.00 | 86 | 1008.4 |
| 20260505023522 | 6 | 229 | 0.0 | 6.4 | 0.00 | 0.00 | 0.00 | 86 | 1008.2 |
| 20260505022753 | 6 | 229 | 0.0 | 6.4 | 0.00 | 0.00 | 0.00 | 86 | 1008.2 |
| 20260505022251 | 6 | 229 | 1.6 | 6.4 | 0.00 | 0.00 | 0.00 | 86 | 1008.2 |
| 20260505021751 | 6 | 229 | 1.6 | 6.4 | 0.00 | 0.00 | 0.00 | 86 | 1008.2 |
| 20260505021252 | 6 | 255 | 0.0 | 0.0 | 0.00 | 0.00 | 0.00 | 86 | 1008.2 |
| 20260505020750 | 6 | 255 | 0.0 | 0.0 | 0.00 | 0.00 | 0.00 | 86 | 1008.2 |
| 20260505020248 | 6 | 255 | 0.0 | 0.0 | 0.00 | 0.00 | 0.00 | 86 | 1008.3 |
| 20260505015748 | 6 | 255 | 0.0 | 0.0 | 0.00 | 0.00 | 0.00 | 85 | 1008.2 |
| 20260505015250 | 6 | 255 | 0.0 | 1.6 | 0.00 | 0.00 | 0.00 | 85 | 1008.2 |
| 20260505014750 | 6 | 255 | 0.0 | 1.6 | 0.00 | 0.00 | 0.00 | 85 | 1008.3 |
| 20260505014254 | 7 | 255 | 0.0 | 1.6 | 0.00 | 0.00 | 0.00 | 84 | 1008.1 |
| 20260505014249 | 7 | 255 | 0.0 | 1.6 | 0.00 | 0.00 | 0.00 | 85 | 1008.3 |
| 20260505013249 | 7 | 255 | 0.0 | 1.6 | 0.00 | 0.00 | 0.00 | 83 | 1008.2 |
| 20260505012749 | 7 | 255 | 0.0 | 4.8 | 0.00 | 0.00 | 0.00 | 83 | 1008.2 |
| 20260505012250 | 7 | 255 | 0.0 | 4.8 | 0.00 | 0.00 | 0.00 | 83 | 1008.3 |
| 20260505011746 | 7 | 255 | 1.6 | 4.8 | 0.00 | 0.00 | 0.00 | 82 | 1008.1 |
| 20260505011245 | 7 | 242 | 1.6 | 4.8 | 0.00 | 0.00 | 0.00 | 82 | 1008.0 |
| 20260505010746 | 7 | 242 | 0.0 | 4.8 | 0.00 | 0.00 | 0.00 | 81 | 1007.9 |
| 20260505010519 | 8 | 238 | 0.0 | 6.4 | 0.00 | 0.00 | 0.00 | 80 | 1007.9 |
| 20260505005746 | 8 | 238 | 0.0 | 6.4 | 0.00 | 0.00 | 0.00 | 80 | 1007.9 |
| 20260505005244 | 8 | 237 | 1.6 | 14.5 | 0.00 | 0.00 | 0.00 | 79 | 1007.7 |
| 20260505004746 | 8 | 238 | 3.2 | 14.5 | 0.00 | 0.00 | 0.00 | 80 | 1007.7 |
| 20260505004243 | 8 | 257 | 4.8 | 14.5 | 0.00 | 0.00 | 0.00 | 80 | 1007.6 |
| 20260505003742 | 8 | 250 | 4.8 | 14.5 | 0.00 | 0.00 | 0.00 | 80 | 1007.6 |
| 20260505003245 | 8 | 250 | 4.8 | 12.9 | 0.00 | 0.00 | 0.00 | 80 | 1007.5 |
| 20260505002741 | 8 | 200 | 6.4 | 12.9 | 0.00 | 0.00 | 0.00 | 80 | 1007.5 |
| 20260505002515 | 8 | 234 | 6.4 | 12.9 | 0.00 | 0.00 | 0.00 | 80 | 1007.5 |
| 20260505002012 | 8 | 227 | 6.4 | 12.9 | 0.00 | 0.00 | 0.00 | 80 | 1007.4 |
| 20260505001240 | 8 | 254 | 6.4 | 12.9 | 0.00 | 0.00 | 0.00 | 80 | 1007.3 |
| 20260505000741 | 8 | 224 | 4.8 | 12.9 | 0.00 | 0.00 | 0.00 | 81 | 1007.3 |
| 20260505000243 | 8 | 223 | 4.8 | 14.5 | 0.00 | 0.00 | 0.00 | 81 | 1007.2 |
| 20260504235738 | 8 | 211 | 8.0 | 14.5 | 0.00 | 0.00 | 0.00 | 81 | 1007.1 |
| 20260504235240 | 8 | 203 | 8.0 | 14.5 | 0.00 | 0.00 | 0.00 | 82 | 1007.1 |
| 20260504234739 | 7 | 193 | 6.4 | 14.5 | 0.00 | 0.00 | 0.00 | 83 | 1007.0 |
| 20260504234240 | 7 | 188 | 4.8 | 9.7 | 0.00 | 0.00 | 0.00 | 83 | 1007.0 |
| 20260504233738 | 7 | 200 | 3.2 | 6.4 | 0.00 | 0.00 | 0.00 | 82 | 1006.9 |
| 20260504232739 | 8 | 175 | 1.6 | 8.0 | 0.00 | 0.00 | 0.00 | 80 | 1006.5 |
| 20260504232240 | 8 | 165 | 1.6 | 6.4 | 0.00 | 0.00 | 0.00 | 79 | 1006.6 |
| 20260504231740 | 8 | 186 | 3.2 | 16.1 | 0.00 | 0.00 | 0.00 | 77 | 1006.5 |
| 20260504231241 | 9 | 202 | 3.2 | 16.1 | 0.00 | 0.00 | 0.00 | 75 | 1006.5 |
| 20260504230739 | 10 | 186 | 3.2 | 17.7 | 0.00 | 0.00 | 0.00 | 74 | 1006.4 |
| 20260504230239 | 11 | 174 | 4.8 | 17.7 | 0.00 | 0.00 | 0.00 | 72 | 1006.3 |
| 20260504225738 | 11 | 214 | 4.8 | 9.7 | 0.00 | 0.00 | 0.00 | 71 | 1006.1 |
| 20260504224738 | 11 | 210 | 4.8 | 9.7 | 0.00 | 0.00 | 0.00 | 71 | 1006.1 |
| 20260504224240 | 11 | 213 | 4.8 | 9.7 | 0.00 | 0.00 | 0.00 | 71 | 1006.1 |
| 20260504223740 | 11 | 199 | 4.8 | 12.9 | 0.00 | 0.00 | 0.00 | 71 | 1006.0 |
| 20260504223239 | 11 | 223 | 3.2 | 12.9 | 0.00 | 0.00 | 0.00 | 70 | 1006.1 |
| 20260504222741 | 12 | 230 | 4.8 | 12.9 | 0.00 | 0.00 | 0.00 | 68 | 1006.1 |
| 20260504222509 | 12 | 215 | 6.4 | 12.9 | 0.00 | 0.00 | 0.00 | 66 | 1006.0 |
| 20260504221739 | 12 | 225 | 4.8 | 12.9 | 0.00 | 0.00 | 0.00 | 65 | 1006.0 |
| 20260504221240 | 12 | 239 | 4.8 | 12.9 | 0.00 | 0.00 | 0.00 | 65 | 1006.0 |
| 20260504220739 | 12 | 248 | 6.4 | 14.5 | 0.00 | 0.00 | 0.00 | 64 | 1005.8 |
| 20260504220510 | 12 | 191 | 4.8 | 14.5 | 0.00 | 0.00 | 0.00 | 65 | 1005.8 |
| 20260504220010 | 13 | 206 | 6.4 | 17.7 | 0.00 | 0.00 | 0.00 | 64 | 1005.7 |
| 20260504215240 | 13 | 249 | 6.4 | 17.7 | 0.00 | 0.00 | 0.00 | 64 | 1005.7 |
| 20260504214740 | 13 | 244 | 8.0 | 17.7 | 0.00 | 0.00 | 0.00 | 63 | 1005.6 |
| 20260504214238 | 13 | 245 | 9.7 | 17.7 | 0.00 | 0.00 | 0.00 | 63 | 1005.6 |
| 20260504214012 | 13 | 269 | 9.7 | 20.9 | 0.00 | 0.00 | 0.00 | 63 | 1005.7 |
| 20260504213509 | 13 | 270 | 11.3 | 20.9 | 0.00 | 0.00 | 0.00 | 63 | 1005.7 |
| 20260504212739 | 13 | 250 | 11.3 | 20.9 | 0.00 | 0.00 | 0.00 | 63 | 1005.8 |
| 20260504212239 | 13 | 215 | 9.7 | 20.9 | 0.00 | 0.00 | 0.00 | 62 | 1005.7 |
| 20260504211739 | 13 | 228 | 9.7 | 19.3 | 0.00 | 0.00 | 0.00 | 62 | 1005.8 |
| 20260504211510 | 13 | 252 | 9.7 | 17.7 | 0.00 | 0.00 | 0.00 | 62 | 1005.7 |
| 20260504210740 | 13 | 207 | 9.7 | 17.7 | 0.00 | 0.00 | 0.00 | 62 | 1005.6 |
| 20260504210239 | 13 | 263 | 9.7 | 25.7 | 0.00 | 0.00 | 0.00 | 63 | 1005.8 |
| 20260504205738 | 13 | 259 | 11.3 | 25.7 | 0.00 | 0.00 | 0.00 | 61 | 1005.7 |
| 20260504205240 | 13 | 268 | 12.9 | 25.7 | 0.00 | 0.00 | 0.00 | 61 | 1005.6 |
| 20260504204739 | 13 | 247 | 12.9 | 25.7 | 0.00 | 0.00 | 0.00 | 60 | 1005.5 |
| 20260504204239 | 13 | 271 | 12.9 | 27.4 | 0.00 | 0.00 | 0.00 | 60 | 1005.5 |
| 20260504203737 | 13 | 209 | 12.9 | 27.4 | 0.00 | 0.00 | 0.00 | 59 | 1005.5 |
| 20260504203236 | 13 | 275 | 11.3 | 22.5 | 0.00 | 0.03 | 0.00 | 59 | 1005.5 |
| 20260504203008 | 13 | 293 | 9.7 | 22.5 | 0.00 | 0.03 | 0.00 | 59 | 1005.4 |
| 20260504202234 | 13 | 235 | 8.0 | 22.5 | 0.00 | 0.03 | 0.00 | 61 | 1005.4 |
| 20260504201736 | 13 | 225 | 9.7 | 22.5 | 0.00 | 0.03 | 0.00 | 61 | 1005.4 |
| 20260504201236 | 13 | 234 | 9.7 | 22.5 | 0.00 | 0.03 | 0.00 | 60 | 1005.5 |
| 20260504200734 | 13 | 267 | 11.3 | 20.9 | 0.00 | 0.05 | 0.00 | 62 | 1005.4 |
| 20260504200236 | 12 | 261 | 11.3 | 20.9 | 0.00 | 0.05 | 0.00 | 63 | 1005.5 |
| 20260504200006 | 12 | 234 | 9.7 | 19.3 | 0.00 | 0.05 | 0.00 | 63 | 1005.5 |
| 20260504195234 | 12 | 251 | 9.7 | 20.9 | 0.00 | 0.05 | 0.00 | 66 | 1005.5 |
| 20260504194737 | 12 | 206 | 9.7 | 20.9 | 0.00 | 0.05 | 0.00 | 66 | 1005.5 |
| 20260504194234 | 12 | 252 | 8.0 | 16.1 | 0.00 | 0.05 | 0.00 | 65 | 1005.5 |
| 20260504193734 | 12 | 224 | 8.0 | 16.1 | 0.00 | 0.05 | 0.00 | 65 | 1005.5 |
| 20260504193233 | 12 | 270 | 6.4 | 14.5 | 0.00 | 0.05 | 0.00 | 68 | 1005.4 |
| 20260504192739 | 11 | 271 | 6.4 | 16.1 | 0.00 | 0.05 | 0.00 | 69 | 1005.7 |
| 20260504192734 | 11 | 243 | 8.0 | 16.1 | 0.00 | 0.05 | 0.00 | 68 | 1005.5 |
| 20260504192003 | 11 | 232 | 6.4 | 16.1 | 0.00 | 0.05 | 0.00 | 72 | 1005.9 |
| 20260504191505 | 10 | 254 | 8.0 | 16.1 | 0.00 | 0.05 | 0.00 | 72 | 1005.9 |
| 20260504190732 | 10 | 258 | 6.4 | 14.5 | 0.00 | 0.05 | 0.00 | 73 | 1006.0 |
| 20260504190233 | 10 | 267 | 8.0 | 14.5 | 0.00 | 0.05 | 0.00 | 73 | 1006.1 |
| 20260504185733 | 10 | 210 | 8.0 | 20.9 | 0.00 | 0.05 | 0.00 | 73 | 1006.1 |
| 20260504185505 | 10 | 242 | 9.7 | 20.9 | 0.00 | 0.08 | 0.00 | 72 | 1006.3 |
| 20260504184733 | 10 | 246 | 11.3 | 24.1 | 0.00 | 0.08 | 0.00 | 71 | 1006.2 |
| 20260504184230 | 10 | 280 | 12.9 | 24.1 | 0.00 | 0.08 | 0.00 | 71 | 1006.2 |
| 20260504183732 | 10 | 286 | 11.3 | 22.5 | 0.00 | 0.08 | 0.00 | 69 | 1006.2 |
| 20260504183231 | 10 | 249 | 11.3 | 22.5 | 0.00 | 0.08 | 0.00 | 69 | 1006.1 |
| 20260504182730 | 10 | 244 | 12.9 | 24.1 | 0.00 | 0.10 | 0.00 | 67 | 1006.1 |
| 20260504182231 | 10 | 249 | 12.9 | 24.1 | 0.00 | 0.10 | 0.00 | 67 | 1006.0 |
| 20260504181730 | 10 | 251 | 11.3 | 24.1 | 0.00 | 0.13 | 0.00 | 68 | 1006.0 |
| 20260504181501 | 10 | 248 | 11.3 | 24.1 | 0.00 | 0.13 | 0.00 | 69 | 1006.0 |
| 20260504180730 | 10 | 271 | 9.7 | 20.9 | 0.00 | 0.15 | 0.00 | 69 | 1005.9 |
| 20260504180231 | 10 | 240 | 8.0 | 20.9 | 0.00 | 0.18 | 0.00 | 69 | 1005.8 |
| 20260504175730 | 10 | 218 | 8.0 | 25.7 | 0.00 | 0.18 | 0.00 | 70 | 1005.7 |
| 20260504175228 | 10 | 245 | 9.7 | 25.7 | 0.00 | 0.20 | 0.00 | 70 | 1005.8 |
| 20260504174728 | 10 | 276 | 11.3 | 25.7 | 0.00 | 0.23 | 0.00 | 69 | 1005.9 |
| 20260504174229 | 11 | 253 | 11.3 | 25.7 | 0.00 | 0.25 | 0.00 | 68 | 1005.8 |
| 20260504173728 | 11 | 240 | 11.3 | 22.5 | 0.00 | 0.28 | 0.00 | 66 | 1005.9 |
| 20260504173459 | 11 | 244 | 9.7 | 22.5 | 0.00 | 0.30 | 0.00 | 67 | 1005.8 |
| 20260504172733 | 11 | 194 | 11.3 | 30.6 | 0.00 | 0.33 | 0.00 | 66 | 1005.7 |
| 20260504172729 | 11 | 203 | 11.3 | 22.5 | 0.00 | 0.33 | 0.00 | 68 | 1005.7 |
| 20260504171728 | 12 | 223 | 12.9 | 30.6 | 0.00 | 0.33 | 0.00 | 65 | 1005.7 |
| 20260504171226 | 11 | 230 | 12.9 | 32.2 | 0.00 | 0.36 | 0.00 | 68 | 1005.7 |
| 20260504170727 | 11 | 174 | 14.5 | 32.2 | 0.00 | 0.38 | 0.00 | 67 | 1005.5 |
| 20260504170227 | 11 | 248 | 12.9 | 27.4 | 0.00 | 0.38 | 0.00 | 69 | 1005.5 |
| 20260504160224 | 11 | 240 | 11.3 | 30.6 | 0.00 | 0.56 | 0.00 | 63 | 1005.8 |
| 20260504150724 | 11 | 222 | 12.9 | 20.9 | 0.00 | 0.76 | 0.00 | 66 | 1006.7 |
| 20260504150453 | 11 | 222 | 14.5 | 22.5 | 0.00 | 0.79 | 0.00 | 65 | 1006.9 |